地図

経路データ

SID SEASON NUMBER BASIN SUBBASIN NAME ISO_TIME NATURE LAT LON WMO_WIND WMO_PRES WMO_AGENCY TRACK_TYPE DIST2LAND LANDFALL IFLAG USA_AGENCY USA_ATCF_ID USA_LAT USA_LON USA_RECORD USA_STATUS USA_WIND USA_PRES USA_SSHS USA_R34_NE USA_R34_SE USA_R34_SW USA_R34_NW USA_R50_NE USA_R50_SE USA_R50_SW USA_R50_NW USA_R64_NE USA_R64_SE USA_R64_SW USA_R64_NW USA_POCI USA_ROCI USA_RMW USA_EYE TOKYO_LAT TOKYO_LON TOKYO_GRADE TOKYO_WIND TOKYO_PRES TOKYO_R50_DIR TOKYO_R50_LONG TOKYO_R50_SHORT TOKYO_R30_DIR TOKYO_R30_LONG TOKYO_R30_SHORT TOKYO_LAND CMA_LAT CMA_LON CMA_CAT CMA_WIND CMA_PRES HKO_LAT HKO_LON HKO_CAT HKO_WIND HKO_PRES NEWDELHI_LAT NEWDELHI_LON NEWDELHI_GRADE NEWDELHI_WIND NEWDELHI_PRES NEWDELHI_CI NEWDELHI_DP NEWDELHI_POCI REUNION_LAT REUNION_LON REUNION_TYPE REUNION_WIND REUNION_PRES REUNION_TNUM REUNION_CI REUNION_RMW REUNION_R34_NE REUNION_R34_SE REUNION_R34_SW REUNION_R34_NW REUNION_R50_NE REUNION_R50_SE REUNION_R50_SW REUNION_R50_NW REUNION_R64_NE REUNION_R64_SE REUNION_R64_SW REUNION_R64_NW BOM_LAT BOM_LON BOM_TYPE BOM_WIND BOM_PRES BOM_TNUM BOM_CI BOM_RMW BOM_R34_NE BOM_R34_SE BOM_R34_SW BOM_R34_NW BOM_R50_NE BOM_R50_SE BOM_R50_SW BOM_R50_NW BOM_R64_NE BOM_R64_SE BOM_R64_SW BOM_R64_NW BOM_ROCI BOM_POCI BOM_EYE BOM_POS_METHOD BOM_PRES_METHOD NADI_LAT NADI_LON NADI_CAT NADI_WIND NADI_PRES WELLINGTON_LAT WELLINGTON_LON WELLINGTON_WIND WELLINGTON_PRES DS824_LAT DS824_LON DS824_STAGE DS824_WIND DS824_PRES TD9636_LAT TD9636_LON TD9636_STAGE TD9636_WIND TD9636_PRES TD9635_LAT TD9635_LON TD9635_WIND TD9635_PRES TD9635_ROCI NEUMANN_LAT NEUMANN_LON NEUMANN_CLASS NEUMANN_WIND NEUMANN_PRES MLC_LAT MLC_LON MLC_CLASS MLC_WIND MLC_PRES USA_GUST BOM_GUST BOM_GUST_PER REUNION_GUST REUNION_GUST_PER USA_SEAHGT USA_SEARAD_NE USA_SEARAD_SE USA_SEARAD_SW USA_SEARAD_NW STORM_SPEED STORM_DIR
1950174N20089 1950 30 NI BB NOT_NAMED 1950-06-22 18:00:00 TS 20.2000 89.1000 main 156 156 O________O____ jtwc_io IO041950 20.2000 89.1000 -1 20.2000 89.1000 TC 3 274
1950174N20089 1950 30 NI BB NOT_NAMED 1950-06-22 21:00:00 TS 20.2100 88.9624 main 156 145 P________P____ IO041950 20.2100 88.9624 -1 20.2100 88.9624 TC 3 290
1950174N20089 1950 30 NI BB NOT_NAMED 1950-06-23 00:00:00 TS 20.3000 88.8000 main 145 123 O________O____ jtwc_io IO041950 20.3000 88.8000 -1 20.3000 88.8000 TC 25 5 312
1950174N20089 1950 30 NI BB NOT_NAMED 1950-06-23 03:00:00 TS 20.5178 88.6001 main 123 89 P________PO___ IO041950 20.5200 88.6001 -1 20.5200 88.6001 TC 25 20.5000 88.6000 1 6 323
1950174N20089 1950 30 NI BB NOT_NAMED 1950-06-23 06:00:00 TS 20.7944 88.4075 main 89 67 O________OP___ jtwc_io IO041950 20.8000 88.4000 -1 20.8000 88.4000 TC 25 20.7719 88.4377 1 6 329
1950174N20089 1950 30 NI BB NOT_NAMED 1950-06-23 09:00:00 TS 21.0431 88.2554 main 67 35 P________PP___ IO041950 21.0424 88.2498 -1 21.0424 88.2498 TC 25 21.0450 88.2702 1 6 331
1950174N20089 1950 30 NI BB NOT_NAMED 1950-06-23 12:00:00 TS 21.3069 88.0975 main 35 15 O________OP___ jtwc_io IO041950 21.3000 88.1000 -1 21.3000 88.1000 TC 25 21.3206 88.0925 1 6 330
1950174N20089 1950 30 NI BB NOT_NAMED 1950-06-23 15:00:00 TS 21.6000 87.9050 main 15 0 P________PO___ IO041950 21.6000 87.9075 -1 21.6000 87.9075 TC 25 21.6000 87.9000 1 7 328
1950174N20089 1950 30 NI BB NOT_NAMED 1950-06-23 18:00:00 TS 21.8944 87.6970 main 0 0 O________OP___ jtwc_io IO041950 21.9000 87.7000 -1 21.9000 87.7000 TC 25 21.8832 87.6911 1 7 325
1950174N20089 1950 30 NI BB NOT_NAMED 1950-06-23 21:00:00 TS 22.1550 87.4875 main 0 0 P________PP___ IO041950 22.1500 87.4924 -1 22.1500 87.4924 TC 25 22.1651 87.4777 1 6 324
1950174N20089 1950 30 NI BB NOT_NAMED 1950-06-24 00:00:00 TS 22.4132 87.2918 main 0 0 O________OP___ jtwc_io IO041950 22.4000 87.3000 -1 22.4000 87.3000 TC 25 22.4395 87.2755 1 6 329
1950174N20089 1950 30 NI BB NOT_NAMED 1950-06-24 03:00:00 TS 22.7050 87.1233 main 0 0 P________PO___ IO041950 22.7075 87.1350 -1 22.7075 87.1350 TC 25 22.7000 87.1000 1 6 334
1950174N20089 1950 30 NI BB NOT_NAMED 1950-06-24 06:00:00 TS 22.9811 86.9956 main 0 0 O________OP___ jtwc_io IO041950 23.0000 87.0000 -1 23.0000 87.0000 TC 25 22.9432 86.9869 1 5 337
1950174N20089 1950 30 NI BB NOT_NAMED 1950-06-24 09:00:00 TS 23.2007 86.8997 main 0 0 P________PP___ IO041950 23.2150 86.8999 -1 23.2150 86.8999 TC 25 23.1722 86.8992 1 5 337
1950174N20089 1950 30 NI BB NOT_NAMED 1950-06-24 12:00:00 TS 23.3967 86.8040 main 0 0 O________OP___ jtwc_io IO041950 23.4000 86.8000 -1 23.4000 86.8000 TC 25 23.3901 86.8120 1 4 333
1950174N20089 1950 30 NI BB NOT_NAMED 1950-06-24 15:00:00 TS 23.5950 86.6766 main 0 0 P________PO___ IO041950 23.5925 86.6649 -1 23.5925 86.6649 TC 25 23.6000 86.7000 1 5 327
1950174N20089 1950 30 NI BB NOT_NAMED 1950-06-24 18:00:00 TS 23.8106 86.5083 main 0 0 O________OP___ jtwc_io IO041950 23.8000 86.5000 -1 23.8000 86.5000 TC 25 23.8317 86.5250 1 6 325
1950174N20089 1950 30 NI BB NOT_NAMED 1950-06-24 21:00:00 TS 24.0659 86.3127 main 0 0 P________PP___ IO041950 24.0725 86.3076 -1 24.0725 86.3076 TC 25 24.0526 86.3230 1 6 322
1950174N20089 1950 30 NI BB NOT_NAMED 1950-06-25 00:00:00 TS 24.2824 86.1031 main 0 0 O________OP___ jtwc_io IO041950 24.3000 86.1000 -1 24.3000 86.1000 TC 25 24.2473 86.1094 1 5 310
1950174N20089 1950 30 NI BB NOT_NAMED 1950-06-25 03:00:00 TS 24.3867 85.8949 main 0 0 P________PO___ IO041950 24.3800 85.8923 -1 24.3800 85.8923 TC 25 24.4000 85.9000 1 4 292
1950174N20089 1950 30 NI BB NOT_NAMED 1950-06-25 06:00:00 TS 24.4310 85.7031 main 0 0 O________OP___ jtwc_io IO041950 24.4000 85.7000 -1 24.4000 85.7000 TC 25 24.4931 85.7093 1 3 286
1950174N20089 1950 30 NI BB NOT_NAMED 1950-06-25 09:00:00 TS 24.4816 85.5373 main 0 0 P________PP___ IO041950 24.4500 85.5425 -1 24.4500 85.5425 TC 25 24.5450 85.5271 1 3 288
1950174N20089 1950 30 NI BB NOT_NAMED 1950-06-25 12:00:00 TS 24.5248 85.3854 main 0 0 O________OP___ jtwc_io IO041950 24.5000 85.4000 -1 24.5000 85.4000 TC 25 24.5744 85.3563 1 3 287
1950174N20089 1950 30 NI BB NOT_NAMED 1950-06-25 15:00:00 TS 24.5667 85.2333 main 0 0 P________PO___ IO041950 24.5500 85.2500 -1 24.5500 85.2500 TC 25 24.6000 85.2000 1 3 288
1950174N20089 1950 30 NI BB NOT_NAMED 1950-06-25 18:00:00 TS 24.6148 85.0840 main 0 0 O________OP___ jtwc_io IO041950 24.6000 85.1000 -1 24.6000 85.1000 TC 25 24.6369 85.0599 1 3 290
1950174N20089 1950 30 NI BB NOT_NAMED 1950-06-25 21:00:00 TS 24.6650 84.9426 main 0 0 P________PP___ IO041950 24.6500 84.9500 -1 24.6500 84.9500 TC 25 24.6850 84.9328 1 3 293
1950174N20089 1950 30 NI BB NOT_NAMED 1950-06-26 00:00:00 TS 24.7203 84.8071 main 0 0 O________OP___ jtwc_io IO041950 24.7000 84.8000 -1 24.7000 84.8000 TC 25 24.7407 84.8143 1 3 301
1950174N20089 1950 30 NI BB NOT_NAMED 1950-06-26 03:00:00 NR 24.8000 84.7000 main 0 __________O___ IO041950 -1 TC 24.8000 84.7000 1 3 310

IBTrACS Databaseについて

本データベースは、米国NOAAが公開する1842年以降の世界の熱帯低気圧のベストトラックデータアーカイブInternational Best Track Archive for Climate Stewardship (IBTrACS)を、ウェブで閲覧しやすい形式に変換したものです。

最終更新日:2021-12-08